sensor_id;sensor_type;location;lat;lon;timestamp;pressure;altitude;pressure_sealevel;temperature;humidity
49072;BME280;52656;52.610;10.236;2023-04-16T00:00:50;101229.28;;;9.14;81.27
49072;BME280;52656;52.610;10.236;2023-04-16T00:03:16;101232.97;;;9.08;81.14
49072;BME280;52656;52.610;10.236;2023-04-16T00:05:41;101235.50;;;9.11;80.96
49072;BME280;52656;52.610;10.236;2023-04-16T00:08:06;101232.63;;;9.21;80.82
49072;BME280;52656;52.610;10.236;2023-04-16T00:10:33;101245.16;;;9.14;81.11
49072;BME280;52656;52.610;10.236;2023-04-16T00:12:59;101230.72;;;9.26;80.59
49072;BME280;52656;52.610;10.236;2023-04-16T00:15:25;101243.44;;;9.13;80.77
49072;BME280;52656;52.610;10.236;2023-04-16T00:17:50;101244.16;;;9.18;80.47
49072;BME280;52656;52.610;10.236;2023-04-16T00:20:15;101242.66;;;9.08;80.92
49072;BME280;52656;52.610;10.236;2023-04-16T00:22:41;101242.53;;;9.12;80.55
49072;BME280;52656;52.610;10.236;2023-04-16T00:25:06;101249.66;;;9.10;80.45
49072;BME280;52656;52.610;10.236;2023-04-16T00:27:32;101247.81;;;9.12;80.76
49072;BME280;52656;52.610;10.236;2023-04-16T00:29:57;101241.94;;;9.01;80.98
49072;BME280;52656;52.610;10.236;2023-04-16T00:32:22;101247.28;;;9.00;81.11
49072;BME280;52656;52.610;10.236;2023-04-16T00:34:48;101245.56;;;8.97;81.19
49072;BME280;52656;52.610;10.236;2023-04-16T00:37:13;101244.06;;;8.87;81.30
49072;BME280;52656;52.610;10.236;2023-04-16T00:39:38;101242.25;;;8.89;81.50
49072;BME280;52656;52.610;10.236;2023-04-16T00:42:04;101242.28;;;8.87;81.42
49072;BME280;52656;52.610;10.236;2023-04-16T00:44:29;101238.69;;;8.90;81.55
49072;BME280;52656;52.610;10.236;2023-04-16T00:46:56;101237.94;;;8.85;81.59
49072;BME280;52656;52.610;10.236;2023-04-16T00:49:22;101240.81;;;8.76;81.68
49072;BME280;52656;52.610;10.236;2023-04-16T00:51:49;101247.97;;;8.72;81.33
49072;BME280;52656;52.610;10.236;2023-04-16T00:54:14;101247.28;;;8.64;81.69
49072;BME280;52656;52.610;10.236;2023-04-16T00:56:40;101248.13;;;8.64;81.81
49072;BME280;52656;52.610;10.236;2023-04-16T00:59:05;101243.84;;;8.60;81.93
49072;BME280;52656;52.610;10.236;2023-04-16T01:01:31;101250.03;;;8.59;82.10
49072;BME280;52656;52.610;10.236;2023-04-16T01:03:56;101241.19;;;8.60;82.25
49072;BME280;52656;52.610;10.236;2023-04-16T01:06:22;101247.56;;;8.52;82.12
49072;BME280;52656;52.610;10.236;2023-04-16T01:08:47;101259.78;;;8.56;82.53
49072;BME280;52656;52.610;10.236;2023-04-16T01:11:14;101253.19;;;8.36;82.76
49072;BME280;52656;52.610;10.236;2023-04-16T01:13:40;101266.41;;;8.36;82.48
49072;BME280;52656;52.610;10.236;2023-04-16T01:16:06;101267.47;;;8.28;82.71
49072;BME280;52656;52.610;10.236;2023-04-16T01:18:32;101269.25;;;8.26;82.79
49072;BME280;52656;52.610;10.236;2023-04-16T01:20:57;101264.19;;;8.15;83.47
49072;BME280;52656;52.610;10.236;2023-04-16T01:23:23;101266.72;;;8.20;82.92
49072;BME280;52656;52.610;10.236;2023-04-16T01:25:48;101272.09;;;8.15;83.61
49072;BME280;52656;52.610;10.236;2023-04-16T01:28:13;101275.66;;;8.12;84.31
49072;BME280;52656;52.610;10.236;2023-04-16T01:30:39;101276.66;;;8.08;84.06
49072;BME280;52656;52.610;10.236;2023-04-16T01:33:04;101283.75;;;8.03;84.22
49072;BME280;52656;52.610;10.236;2023-04-16T01:35:31;101284.66;;;8.04;84.57
49072;BME280;52656;52.610;10.236;2023-04-16T01:37:56;101284.66;;;8.02;83.88
49072;BME280;52656;52.610;10.236;2023-04-16T01:40:21;101281.25;;;7.97;84.59
49072;BME280;52656;52.610;10.236;2023-04-16T01:42:47;101287.41;;;7.98;84.55
49072;BME280;52656;52.610;10.236;2023-04-16T01:45:12;101283.81;;;8.02;84.55
49072;BME280;52656;52.610;10.236;2023-04-16T01:47:37;101288.84;;;8.12;83.60
49072;BME280;52656;52.610;10.236;2023-04-16T01:50:04;101290.63;;;8.12;83.76
49072;BME280;52656;52.610;10.236;2023-04-16T01:52:29;101288.94;;;8.09;83.73
49072;BME280;52656;52.610;10.236;2023-04-16T01:54:55;101297.53;;;8.19;83.18
49072;BME280;52656;52.610;10.236;2023-04-16T01:57:20;101293.16;;;8.16;83.42
49072;BME280;52656;52.610;10.236;2023-04-16T01:59:45;101294.03;;;8.17;83.09
49072;BME280;52656;52.610;10.236;2023-04-16T02:02:12;101296.84;;;8.08;83.67
49072;BME280;52656;52.610;10.236;2023-04-16T02:04:39;101289.75;;;8.13;83.13
49072;BME280;52656;52.610;10.236;2023-04-16T02:07:06;101293.25;;;8.13;83.39
49072;BME280;52656;52.610;10.236;2023-04-16T02:09:33;101289.75;;;8.11;83.47
49072;BME280;52656;52.610;10.236;2023-04-16T02:11:58;101301.84;;;8.23;83.17
49072;BME280;52656;52.610;10.236;2023-04-16T02:14:23;101294.91;;;8.18;83.66
49072;BME280;52656;52.610;10.236;2023-04-16T02:16:50;101294.78;;;8.24;83.21
49072;BME280;52656;52.610;10.236;2023-04-16T02:19:15;101301.16;;;8.13;83.18
49072;BME280;52656;52.610;10.236;2023-04-16T02:21:41;101304.75;;;8.09;83.26
49072;BME280;52656;52.610;10.236;2023-04-16T02:24:06;101307.13;;;8.22;83.23
49072;BME280;52656;52.610;10.236;2023-04-16T02:26:32;101306.25;;;8.21;82.94
49072;BME280;52656;52.610;10.236;2023-04-16T02:28:57;101304.53;;;8.20;83.30
49072;BME280;52656;52.610;10.236;2023-04-16T02:31:22;101305.28;;;8.28;82.82
49072;BME280;52656;52.610;10.236;2023-04-16T02:33:48;101303.63;;;8.21;83.30
49072;BME280;52656;52.610;10.236;2023-04-16T02:36:13;101309.09;;;8.13;83.09
49072;BME280;52656;52.610;10.236;2023-04-16T02:38:38;101305.47;;;8.18;82.85
49072;BME280;52656;52.610;10.236;2023-04-16T02:41:04;101304.84;;;8.05;83.53
49072;BME280;52656;52.610;10.236;2023-04-16T02:43:29;101302.94;;;8.13;82.95
49072;BME280;52656;52.610;10.236;2023-04-16T02:45:54;101309.03;;;8.15;83.14
49072;BME280;52656;52.610;10.236;2023-04-16T02:48:20;101313.59;;;8.07;83.38
49072;BME280;52656;52.610;10.236;2023-04-16T02:50:45;101310.72;;;8.19;83.21
49072;BME280;52656;52.610;10.236;2023-04-16T02:53:10;101311.63;;;8.18;82.97
49072;BME280;52656;52.610;10.236;2023-04-16T02:55:35;101316.09;;;8.14;83.04
49072;BME280;52656;52.610;10.236;2023-04-16T02:58:01;101319.44;;;8.23;82.68
49072;BME280;52656;52.610;10.236;2023-04-16T03:00:26;101314.06;;;8.29;82.57
49072;BME280;52656;52.610;10.236;2023-04-16T03:02:51;101320.09;;;8.34;82.18
49072;BME280;52656;52.610;10.236;2023-04-16T03:05:17;101317.66;;;8.23;82.38
49072;BME280;52656;52.610;10.236;2023-04-16T03:07:42;101324.06;;;8.11;82.86
49072;BME280;52656;52.610;10.236;2023-04-16T03:10:07;101319.50;;;8.20;82.53
49072;BME280;52656;52.610;10.236;2023-04-16T03:12:34;101321.31;;;8.16;82.57
49072;BME280;52656;52.610;10.236;2023-04-16T03:15:00;101317.66;;;8.23;82.68
49072;BME280;52656;52.610;10.236;2023-04-16T03:17:25;101320.16;;;8.31;82.33
49072;BME280;52656;52.610;10.236;2023-04-16T03:19:50;101315.59;;;8.39;81.94
49072;BME280;52656;52.610;10.236;2023-04-16T03:22:16;101323.03;;;8.19;82.64
49072;BME280;52656;52.610;10.236;2023-04-16T03:24:41;101323.16;;;8.12;82.72
49072;BME280;52656;52.610;10.236;2023-04-16T03:27:07;101323.00;;;8.20;82.49
49072;BME280;52656;52.610;10.236;2023-04-16T03:29:32;101327.97;;;8.37;81.53
49072;BME280;52656;52.610;10.236;2023-04-16T03:31:57;101334.94;;;8.41;81.79
49072;BME280;52656;52.610;10.236;2023-04-16T03:34:22;101335.06;;;8.33;81.50
49072;BME280;52656;52.610;10.236;2023-04-16T03:36:48;101331.72;;;8.24;82.03
49072;BME280;52656;52.610;10.236;2023-04-16T03:39:13;101336.81;;;8.36;81.33
49072;BME280;52656;52.610;10.236;2023-04-16T03:41:39;101331.72;;;8.24;81.86
49072;BME280;52656;52.610;10.236;2023-04-16T03:44:04;101335.34;;;8.20;81.85
49072;BME280;52656;52.610;10.236;2023-04-16T03:46:29;101329.38;;;8.10;82.10
49072;BME280;52656;52.610;10.236;2023-04-16T03:48:55;101332.81;;;8.13;82.13
49072;BME280;52656;52.610;10.236;2023-04-16T03:51:20;101335.56;;;8.07;82.56
49072;BME280;52656;52.610;10.236;2023-04-16T03:53:45;101342.28;;;8.27;81.40
49072;BME280;52656;52.610;10.236;2023-04-16T03:56:11;101333.66;;;8.15;82.16
49072;BME280;52656;52.610;10.236;2023-04-16T03:58:36;101337.78;;;8.30;81.66
49072;BME280;52656;52.610;10.236;2023-04-16T04:01:01;101339.44;;;8.36;81.23
49072;BME280;52656;52.610;10.236;2023-04-16T04:03:26;101338.63;;;8.31;81.66
49072;BME280;52656;52.610;10.236;2023-04-16T04:05:52;101331.66;;;8.28;81.29
49072;BME280;52656;52.610;10.236;2023-04-16T04:08:18;101333.22;;;8.38;81.30
49072;BME280;52656;52.610;10.236;2023-04-16T04:10:44;101339.25;;;8.45;80.91
49072;BME280;52656;52.610;10.236;2023-04-16T04:13:10;101340.00;;;8.50;81.00
49072;BME280;52656;52.610;10.236;2023-04-16T04:15:35;101345.09;;;8.58;80.72
49072;BME280;52656;52.610;10.236;2023-04-16T04:18:00;101345.03;;;8.61;80.71
49072;BME280;52656;52.610;10.236;2023-04-16T04:20:26;101340.63;;;8.61;80.53
49072;BME280;52656;52.610;10.236;2023-04-16T04:22:51;101343.28;;;8.61;80.60
49072;BME280;52656;52.610;10.236;2023-04-16T04:25:17;101350.38;;;8.59;80.41
49072;BME280;52656;52.610;10.236;2023-04-16T04:27:42;101345.91;;;8.63;80.59
49072;BME280;52656;52.610;10.236;2023-04-16T04:30:08;101351.34;;;8.55;80.44
49072;BME280;52656;52.610;10.236;2023-04-16T04:32:34;101346.16;;;8.51;80.43
49072;BME280;52656;52.610;10.236;2023-04-16T04:35:01;101347.97;;;8.47;80.68
49072;BME280;52656;52.610;10.236;2023-04-16T04:37:27;101346.09;;;8.52;80.40
49072;BME280;52656;52.610;10.236;2023-04-16T04:39:52;101355.09;;;8.44;80.72
49072;BME280;52656;52.610;10.236;2023-04-16T04:42:18;101364.53;;;8.55;80.18
49072;BME280;52656;52.610;10.236;2023-04-16T04:44:44;101368.09;;;8.53;80.27
49072;BME280;52656;52.610;10.236;2023-04-16T04:47:10;101354.06;;;8.51;80.57
49072;BME280;52656;52.610;10.236;2023-04-16T04:49:35;101356.75;;;8.49;80.37
49072;BME280;52656;52.610;10.236;2023-04-16T04:52:01;101358.38;;;8.55;80.34
49072;BME280;52656;52.610;10.236;2023-04-16T04:54:30;101355.81;;;8.52;80.41
49072;BME280;52656;52.610;10.236;2023-04-16T04:56:55;101362.88;;;8.51;80.34
49072;BME280;52656;52.610;10.236;2023-04-16T04:59:22;101360.25;;;8.50;80.43
49072;BME280;52656;52.610;10.236;2023-04-16T05:01:47;101356.72;;;8.51;80.55
49072;BME280;52656;52.610;10.236;2023-04-16T05:04:12;101370.63;;;8.59;80.21
49072;BME280;52656;52.610;10.236;2023-04-16T05:06:38;101363.63;;;8.56;80.16
49072;BME280;52656;52.610;10.236;2023-04-16T05:09:03;101363.72;;;8.52;80.35
49072;BME280;52656;52.610;10.236;2023-04-16T05:11:28;101366.31;;;8.55;80.14
49072;BME280;52656;52.610;10.236;2023-04-16T05:13:54;101372.41;;;8.58;80.12
49072;BME280;52656;52.610;10.236;2023-04-16T05:16:19;101376.06;;;8.51;80.36
49072;BME280;52656;52.610;10.236;2023-04-16T05:18:44;101377.88;;;8.48;80.56
49072;BME280;52656;52.610;10.236;2023-04-16T05:21:10;101378.47;;;8.62;79.87
49072;BME280;52656;52.610;10.236;2023-04-16T05:23:35;101382.81;;;8.64;79.92
49072;BME280;52656;52.610;10.236;2023-04-16T05:26:00;101380.13;;;8.68;79.63
49072;BME280;52656;52.610;10.236;2023-04-16T05:28:26;101383.06;;;8.52;80.29
49072;BME280;52656;52.610;10.236;2023-04-16T05:30:51;101388.97;;;8.65;79.71
49072;BME280;52656;52.610;10.236;2023-04-16T05:33:16;101394.41;;;8.59;79.94
49072;BME280;52656;52.610;10.236;2023-04-16T05:35:41;101401.44;;;8.58;79.58
49072;BME280;52656;52.610;10.236;2023-04-16T05:38:07;101406.78;;;8.55;79.95
49072;BME280;52656;52.610;10.236;2023-04-16T05:40:32;101403.91;;;8.66;79.52
49072;BME280;52656;52.610;10.236;2023-04-16T05:42:57;101406.59;;;8.64;80.03
49072;BME280;52656;52.610;10.236;2023-04-16T05:45:23;101408.56;;;8.53;80.09
49072;BME280;52656;52.610;10.236;2023-04-16T05:47:48;101410.97;;;8.65;79.36
49072;BME280;52656;52.610;10.236;2023-04-16T05:50:14;101411.88;;;8.64;79.64
49072;BME280;52656;52.610;10.236;2023-04-16T05:52:39;101423.25;;;8.68;79.67
49072;BME280;52656;52.610;10.236;2023-04-16T05:55:05;101423.16;;;8.71;79.45
49072;BME280;52656;52.610;10.236;2023-04-16T05:57:31;101420.53;;;8.71;79.39
49072;BME280;52656;52.610;10.236;2023-04-16T05:59:57;101423.16;;;8.71;79.18
49072;BME280;52656;52.610;10.236;2023-04-16T06:02:22;101419.94;;;8.57;79.65
49072;BME280;52656;52.610;10.236;2023-04-16T06:04:47;101424.94;;;8.71;79.25
49072;BME280;52656;52.610;10.236;2023-04-16T06:07:13;101435.69;;;8.61;79.21
49072;BME280;52656;52.610;10.236;2023-04-16T06:09:39;101431.06;;;8.73;78.88
49072;BME280;52656;52.610;10.236;2023-04-16T06:12:04;101429.97;;;8.83;78.67
49072;BME280;52656;52.610;10.236;2023-04-16T06:14:30;101442.56;;;8.70;79.20
49072;BME280;52656;52.610;10.236;2023-04-16T06:16:55;101442.13;;;8.90;78.36
49072;BME280;52656;52.610;10.236;2023-04-16T06:19:20;101434.59;;;8.72;78.78
49072;BME280;52656;52.610;10.236;2023-04-16T06:21:45;101444.09;;;8.82;77.98
49072;BME280;52656;52.610;10.236;2023-04-16T06:24:11;101443.03;;;8.89;77.67
49072;BME280;52656;52.610;10.236;2023-04-16T06:26:37;101451.63;;;9.00;77.13
49072;BME280;52656;52.610;10.236;2023-04-16T06:29:02;101450.44;;;9.13;76.89
49072;BME280;52656;52.610;10.236;2023-04-16T06:31:28;101455.63;;;9.18;76.69
49072;BME280;52656;52.610;10.236;2023-04-16T06:33:54;101458.16;;;9.23;76.68
49072;BME280;52656;52.610;10.236;2023-04-16T06:36:19;101456.13;;;9.34;75.91
49072;BME280;52656;52.610;10.236;2023-04-16T06:38:44;101462.66;;;9.56;75.08
49072;BME280;52656;52.610;10.236;2023-04-16T06:41:12;101462.59;;;9.59;75.04
49072;BME280;52656;52.610;10.236;2023-04-16T06:43:38;101465.13;;;9.64;74.19
49072;BME280;52656;52.610;10.236;2023-04-16T06:46:03;101466.38;;;9.86;73.82
49072;BME280;52656;52.610;10.236;2023-04-16T06:48:28;101470.13;;;9.75;73.58
49072;BME280;52656;52.610;10.236;2023-04-16T06:50:54;101468.22;;;9.81;73.24
49072;BME280;52656;52.610;10.236;2023-04-16T06:53:20;101470.88;;;9.80;72.68
49072;BME280;52656;52.610;10.236;2023-04-16T06:55:45;101472.09;;;9.68;72.85
49072;BME280;52656;52.610;10.236;2023-04-16T06:58:10;101469.88;;;9.87;72.21
49072;BME280;52656;52.610;10.236;2023-04-16T07:00:36;101478.72;;;9.86;72.01
49072;BME280;52656;52.610;10.236;2023-04-16T07:03:01;101478.94;;;10.11;72.22
49072;BME280;52656;52.610;10.236;2023-04-16T07:05:27;101479.38;;;9.94;71.94
49072;BME280;52656;52.610;10.236;2023-04-16T07:07:52;101477.22;;;10.10;71.09
49072;BME280;52656;52.610;10.236;2023-04-16T07:10:17;101482.44;;;10.13;71.44
49072;BME280;52656;52.610;10.236;2023-04-16T07:12:43;101479.69;;;10.17;70.43
49072;BME280;52656;52.610;10.236;2023-04-16T07:15:09;101480.00;;;10.38;70.42
49072;BME280;52656;52.610;10.236;2023-04-16T07:17:34;101492.56;;;10.30;70.05
49072;BME280;52656;52.610;10.236;2023-04-16T07:20:00;101482.53;;;10.42;69.73
49072;BME280;52656;52.610;10.236;2023-04-16T07:22:25;101486.50;;;10.57;69.74
49072;BME280;52656;52.610;10.236;2023-04-16T07:24:50;101485.19;;;10.74;69.16
49072;BME280;52656;52.610;10.236;2023-04-16T07:27:16;101489.66;;;10.72;68.92
49072;BME280;52656;52.610;10.236;2023-04-16T07:29:41;101482.28;;;10.83;68.70
49072;BME280;52656;52.610;10.236;2023-04-16T07:32:07;101494.66;;;10.51;67.83
49072;BME280;52656;52.610;10.236;2023-04-16T07:34:32;101489.78;;;10.36;68.53
49072;BME280;52656;52.610;10.236;2023-04-16T07:36:57;101492.38;;;10.37;68.93
49072;BME280;52656;52.610;10.236;2023-04-16T07:39:23;101495.50;;;10.19;69.44
49072;BME280;52656;52.610;10.236;2023-04-16T07:41:48;101497.59;;;10.06;69.67
49072;BME280;52656;52.610;10.236;2023-04-16T07:44:13;101502.22;;;9.98;69.80
49072;BME280;52656;52.610;10.236;2023-04-16T07:46:39;101502.59;;;9.83;70.33
49072;BME280;52656;52.610;10.236;2023-04-16T07:49:04;101505.94;;;9.91;70.49
49072;BME280;52656;52.610;10.236;2023-04-16T07:51:29;101507.50;;;10.00;70.74
49072;BME280;52656;52.610;10.236;2023-04-16T07:53:55;101510.03;;;10.04;70.68
49072;BME280;52656;52.610;10.236;2023-04-16T07:56:20;101506.22;;;10.14;70.40
49072;BME280;52656;52.610;10.236;2023-04-16T07:58:46;101510.91;;;10.03;70.58
49072;BME280;52656;52.610;10.236;2023-04-16T08:01:11;101514.16;;;10.14;70.30
49072;BME280;52656;52.610;10.236;2023-04-16T08:03:36;101510.28;;;9.93;70.42
49072;BME280;52656;52.610;10.236;2023-04-16T08:06:02;101514.34;;;10.08;70.19
49072;BME280;52656;52.610;10.236;2023-04-16T08:08:27;101532.19;;;10.00;70.72
49072;BME280;52656;52.610;10.236;2023-04-16T08:10:53;101524.13;;;10.03;70.60
49072;BME280;52656;52.610;10.236;2023-04-16T08:13:22;101530.97;;;10.13;70.04
49072;BME280;52656;52.610;10.236;2023-04-16T08:15:48;101535.47;;;10.10;69.84
49072;BME280;52656;52.610;10.236;2023-04-16T08:18:13;101531.09;;;10.09;69.77
49072;BME280;52656;52.610;10.236;2023-04-16T08:20:40;101529.94;;;9.82;70.77
49072;BME280;52656;52.610;10.236;2023-04-16T08:23:05;101538.63;;;9.90;70.24
49072;BME280;52656;52.610;10.236;2023-04-16T08:25:31;101546.03;;;9.73;71.19
49072;BME280;52656;52.610;10.236;2023-04-16T08:27:56;101544.06;;;9.82;71.01
49072;BME280;52656;52.610;10.236;2023-04-16T08:30:21;101551.69;;;9.96;70.60
49072;BME280;52656;52.610;10.236;2023-04-16T08:32:47;101544.72;;;9.92;71.21
49072;BME280;52656;52.610;10.236;2023-04-16T08:35:12;101558.50;;;9.67;71.46
49072;BME280;52656;52.610;10.236;2023-04-16T08:37:37;101557.50;;;9.72;71.55
49072;BME280;52656;52.610;10.236;2023-04-16T08:40:03;101556.06;;;9.97;70.87
49072;BME280;52656;52.610;10.236;2023-04-16T08:42:31;101568.66;;;9.87;71.44
49072;BME280;52656;52.610;10.236;2023-04-16T08:45:16;101561.41;;;9.94;71.03
49072;BME280;52656;52.610;10.236;2023-04-16T08:47:47;101568.72;;;9.84;71.79
49072;BME280;52656;52.610;10.236;2023-04-16T08:50:21;101572.84;;;9.96;71.24
49072;BME280;52656;52.610;10.236;2023-04-16T08:52:57;101575.13;;;10.11;70.89
49072;BME280;52656;52.610;10.236;2023-04-16T08:55:38;101565.22;;;10.19;71.39
49072;BME280;52656;52.610;10.236;2023-04-16T08:58:14;101567.19;;;10.11;70.87
49072;BME280;52656;52.610;10.236;2023-04-16T09:00:39;101567.97;;;10.15;71.33
49072;BME280;52656;52.610;10.236;2023-04-16T09:03:08;101567.41;;;10.02;71.15
49072;BME280;52656;52.610;10.236;2023-04-16T09:05:34;101572.78;;;9.99;71.20
49072;BME280;52656;52.610;10.236;2023-04-16T09:08:00;101580.06;;;9.89;71.99
49072;BME280;52656;52.610;10.236;2023-04-16T09:10:26;101574.53;;;10.00;71.23
49072;BME280;52656;52.610;10.236;2023-04-16T09:12:54;101583.97;;;10.10;71.98
49072;BME280;52656;52.610;10.236;2023-04-16T09:15:20;101582.63;;;9.92;73.14
49072;BME280;52656;52.610;10.236;2023-04-16T09:17:46;101579.16;;;9.90;73.57
49072;BME280;52656;52.610;10.236;2023-04-16T09:20:11;101581.59;;;10.00;73.98
49072;BME280;52656;52.610;10.236;2023-04-16T09:22:38;101591.97;;;10.09;73.75
49072;BME280;52656;52.610;10.236;2023-04-16T09:25:06;101584.16;;;10.03;74.81
49072;BME280;52656;52.610;10.236;2023-04-16T09:27:32;101590.06;;;10.14;74.11
49072;BME280;52656;52.610;10.236;2023-04-16T09:29:57;101588.88;;;10.26;74.01
49072;BME280;52656;52.610;10.236;2023-04-16T09:32:24;101596.59;;;10.35;73.52
49072;BME280;52656;52.610;10.236;2023-04-16T09:35:00;101595.78;;;10.33;73.22
49072;BME280;52656;52.610;10.236;2023-04-16T09:37:28;101599.97;;;10.41;73.73
49072;BME280;52656;52.610;10.236;2023-04-16T09:40:01;101600.34;;;10.26;72.53
49072;BME280;52656;52.610;10.236;2023-04-16T09:42:37;101596.94;;;10.23;72.40
49072;BME280;52656;52.610;10.236;2023-04-16T09:45:02;101610.56;;;10.06;72.40
49072;BME280;52656;52.610;10.236;2023-04-16T09:47:39;101610.44;;;10.10;73.20
49072;BME280;52656;52.610;10.236;2023-04-16T09:50:06;101608.03;;;10.01;74.22
49072;BME280;52656;52.610;10.236;2023-04-16T09:52:35;101617.75;;;10.01;73.43
49072;BME280;52656;52.610;10.236;2023-04-16T09:55:00;101607.91;;;10.06;73.73
49072;BME280;52656;52.610;10.236;2023-04-16T09:57:26;101619.91;;;9.83;75.06
49072;BME280;52656;52.610;10.236;2023-04-16T09:59:53;101622.34;;;9.92;74.67
49072;BME280;52656;52.610;10.236;2023-04-16T10:02:19;101623.84;;;10.04;74.51
49072;BME280;52656;52.610;10.236;2023-04-16T10:04:51;101624.44;;;10.15;74.48
49072;BME280;52656;52.610;10.236;2023-04-16T10:07:17;101622.88;;;10.08;74.42
49072;BME280;52656;52.610;10.236;2023-04-16T10:09:43;101632.16;;;10.25;74.91
49072;BME280;52656;52.610;10.236;2023-04-16T10:12:08;101618.34;;;10.48;73.80
49072;BME280;52656;52.610;10.236;2023-04-16T10:14:34;101627.28;;;10.43;74.03
49072;BME280;52656;52.610;10.236;2023-04-16T10:17:01;101628.81;;;10.52;74.31
49072;BME280;52656;52.610;10.236;2023-04-16T10:19:27;101637.09;;;10.74;73.97
49072;BME280;52656;52.610;10.236;2023-04-16T10:21:54;101639.69;;;10.77;73.62
49072;BME280;52656;52.610;10.236;2023-04-16T10:24:19;101635.56;;;10.98;73.06
49072;BME280;52656;52.610;10.236;2023-04-16T10:26:46;101645.91;;;10.75;73.21
49072;BME280;52656;52.610;10.236;2023-04-16T10:29:13;101639.50;;;11.16;71.77
49072;BME280;52656;52.610;10.236;2023-04-16T10:31:39;101639.94;;;11.33;71.20
49072;BME280;52656;52.610;10.236;2023-04-16T10:34:07;101642.06;;;11.19;70.57
49072;BME280;52656;52.610;10.236;2023-04-16T10:36:36;101636.88;;;11.47;70.55
49072;BME280;52656;52.610;10.236;2023-04-16T10:39:02;101635.97;;;11.78;69.90
49072;BME280;52656;52.610;10.236;2023-04-16T10:41:27;101646.69;;;12.03;69.47
49072;BME280;52656;52.610;10.236;2023-04-16T10:44:02;101637.69;;;12.07;68.71
49072;BME280;52656;52.610;10.236;2023-04-16T10:46:34;101646.88;;;12.25;68.04
49072;BME280;52656;52.610;10.236;2023-04-16T10:49:12;101640.19;;;12.13;66.77
49072;BME280;52656;52.610;10.236;2023-04-16T10:51:39;101637.03;;;12.00;66.90
49072;BME280;52656;52.610;10.236;2023-04-16T10:56:35;101638.25;;;12.44;66.66
49072;BME280;52656;52.610;10.236;2023-04-16T10:59:03;101639.13;;;12.71;65.17
49072;BME280;52656;52.610;10.236;2023-04-16T11:01:32;101639.13;;;12.71;65.22
49072;BME280;52656;52.610;10.236;2023-04-16T11:04:00;101642.19;;;12.86;64.48
49072;BME280;52656;52.610;10.236;2023-04-16T11:06:28;101634.97;;;13.61;62.80
49072;BME280;52656;52.610;10.236;2023-04-16T11:08:53;101637.81;;;13.80;61.12
49072;BME280;52656;52.610;10.236;2023-04-16T11:11:20;101639.94;;;13.94;60.52
49072;BME280;52656;52.610;10.236;2023-04-16T11:13:46;101629.69;;;14.29;60.04
49072;BME280;52656;52.610;10.236;2023-04-16T11:16:12;101638.44;;;13.65;60.12
49072;BME280;52656;52.610;10.236;2023-04-16T11:18:38;101643.22;;;13.55;60.49
49072;BME280;52656;52.610;10.236;2023-04-16T11:21:08;101645.28;;;12.98;61.61
49072;BME280;52656;52.610;10.236;2023-04-16T11:23:52;101640.34;;;12.88;62.62
49072;BME280;52656;52.610;10.236;2023-04-16T11:26:25;101643.72;;;12.66;63.35
49072;BME280;52656;52.610;10.236;2023-04-16T11:28:51;101650.41;;;13.05;62.88
49072;BME280;52656;52.610;10.236;2023-04-16T11:31:16;101637.13;;;13.03;61.89
49072;BME280;52656;52.610;10.236;2023-04-16T11:33:42;101642.94;;;13.14;61.69
49072;BME280;52656;52.610;10.236;2023-04-16T11:36:07;101638.91;;;13.28;60.99
49072;BME280;52656;52.610;10.236;2023-04-16T11:38:37;101630.34;;;13.68;59.89
49072;BME280;52656;52.610;10.236;2023-04-16T11:41:02;101631.69;;;14.44;58.61
49072;BME280;52656;52.610;10.236;2023-04-16T11:43:28;101631.81;;;15.24;56.84
49072;BME280;52656;52.610;10.236;2023-04-16T11:46:04;101632.28;;;15.53;55.06
49072;BME280;52656;52.610;10.236;2023-04-16T11:48:49;101630.28;;;15.18;54.32
49072;BME280;52656;52.610;10.236;2023-04-16T11:51:15;101626.16;;;15.69;53.61
49072;BME280;52656;52.610;10.236;2023-04-16T11:53:59;101637.78;;;15.49;53.11
49072;BME280;52656;52.610;10.236;2023-04-16T11:56:29;101631.59;;;15.87;53.06
49072;BME280;52656;52.610;10.236;2023-04-16T11:59:15;101624.94;;;15.95;52.88
49072;BME280;52656;52.610;10.236;2023-04-16T12:01:45;101625.00;;;15.94;52.44
49072;BME280;52656;52.610;10.236;2023-04-16T12:04:13;101638.34;;;15.56;53.23
49072;BME280;52656;52.610;10.236;2023-04-16T12:06:40;101643.75;;;15.15;53.59
49072;BME280;52656;52.610;10.236;2023-04-16T12:09:24;101645.31;;;15.01;54.07
49072;BME280;52656;52.610;10.236;2023-04-16T12:11:49;101639.25;;;15.17;54.25
49072;BME280;52656;52.610;10.236;2023-04-16T12:14:15;101642.03;;;15.54;53.03
49072;BME280;52656;52.610;10.236;2023-04-16T12:16:40;101640.53;;;15.67;52.65
49072;BME280;52656;52.610;10.236;2023-04-16T12:19:05;101630.66;;;15.88;51.87
49072;BME280;52656;52.610;10.236;2023-04-16T12:21:42;101625.75;;;15.79;51.94
49072;BME280;52656;52.610;10.236;2023-04-16T12:24:09;101635.75;;;15.55;52.31
49072;BME280;52656;52.610;10.236;2023-04-16T12:26:39;101640.13;;;15.37;52.45
49072;BME280;52656;52.610;10.236;2023-04-16T12:29:14;101637.59;;;15.34;52.55
49072;BME280;52656;52.610;10.236;2023-04-16T12:31:40;101642.03;;;15.54;51.89
49072;BME280;52656;52.610;10.236;2023-04-16T12:34:05;101642.91;;;15.73;51.48
49072;BME280;52656;52.610;10.236;2023-04-16T12:36:30;101632.78;;;15.81;51.20
49072;BME280;52656;52.610;10.236;2023-04-16T12:38:56;101636.56;;;15.75;50.94
49072;BME280;52656;52.610;10.236;2023-04-16T12:41:21;101639.94;;;16.17;51.24
49072;BME280;52656;52.610;10.236;2023-04-16T12:43:46;101637.75;;;16.25;49.66